createdAt,value
2023-01-20T00:00:09.031Z,1
2023-01-20T00:01:08.948Z,1
2023-01-20T00:02:10.600Z,1
2023-01-20T00:03:09.836Z,1
2023-01-20T00:04:07.741Z,1.1
2023-01-20T00:05:09.851Z,1
2023-01-20T00:06:09.382Z,0.9
2023-01-20T00:07:09.903Z,0.9
2023-01-20T00:08:09.520Z,0.8
2023-01-20T00:09:09.188Z,0.8
2023-01-20T00:10:08.921Z,0.7
2023-01-20T00:11:09.179Z,0.7
2023-01-20T00:12:08.772Z,0.8
2023-01-20T00:13:08.638Z,0.8
2023-01-20T00:14:09.709Z,0.7
2023-01-20T00:15:08.896Z,0.7
2023-01-20T00:16:09.381Z,0.7
2023-01-20T00:17:09.180Z,0.7
2023-01-20T00:18:08.705Z,0.7
2023-01-20T00:19:09.491Z,0.7
2023-01-20T00:20:09.169Z,0.7
2023-01-20T00:21:08.967Z,0.7
2023-01-20T00:22:09.165Z,0.7
2023-01-20T00:23:09.646Z,0.8
2023-01-20T00:24:08.695Z,0.8
2023-01-20T00:25:09.976Z,0.8
2023-01-20T00:26:09.244Z,0.8
2023-01-20T00:27:08.514Z,0.9
2023-01-20T00:28:09.143Z,0.9
2023-01-20T00:29:08.634Z,1
2023-01-20T00:30:09.611Z,1
2023-01-20T00:31:09.183Z,1
2023-01-20T00:32:09.254Z,1
2023-01-20T00:33:09.531Z,1
2023-01-20T00:34:09.181Z,0.9
2023-01-20T00:35:09.164Z,0.9
2023-01-20T00:36:08.735Z,0.9
2023-01-20T00:37:08.709Z,1
2023-01-20T00:38:09.081Z,1
2023-01-20T00:39:09.091Z,1
2023-01-20T00:40:10.039Z,0.9
2023-01-20T00:41:08.750Z,0.9
2023-01-20T00:42:09.034Z,0.8
2023-01-20T00:43:08.675Z,0.8
2023-01-20T00:44:09.541Z,0.8
2023-01-20T00:45:08.923Z,0.9
2023-01-20T00:46:08.804Z,1
2023-01-20T00:47:10.083Z,0.9
2023-01-20T00:48:09.516Z,0.9
2023-01-20T00:49:08.694Z,0.9
2023-01-20T00:50:09.537Z,0.9
2023-01-20T00:51:08.631Z,1
2023-01-20T00:52:09.608Z,1.1
2023-01-20T00:53:09.466Z,1.1
2023-01-20T00:54:08.969Z,1
2023-01-20T00:55:08.627Z,1
2023-01-20T00:56:10.042Z,1
2023-01-20T00:57:08.652Z,1.1
2023-01-20T00:58:09.594Z,1
2023-01-20T00:59:08.895Z,1.2
2023-01-20T01:00:09.460Z,1.1
2023-01-20T01:01:09.090Z,1.1
2023-01-20T01:02:09.216Z,1.3
2023-01-20T01:03:08.969Z,1.2
2023-01-20T01:04:08.870Z,1.1
2023-01-20T01:05:09.167Z,1.1
2023-01-20T01:06:09.824Z,1.1
2023-01-20T01:07:09.237Z,1.2
2023-01-20T01:08:09.288Z,1.4
2023-01-20T01:09:08.660Z,1.3
2023-01-20T01:10:09.352Z,1.3
2023-01-20T01:11:08.617Z,1.3
2023-01-20T01:13:09.169Z,1.1
2023-01-20T01:14:09.550Z,1.1
2023-01-20T01:15:10.341Z,1.1
2023-01-20T01:16:09.098Z,1.1
2023-01-20T01:17:09.019Z,1.2
2023-01-20T01:18:08.815Z,1.2
2023-01-20T01:19:08.931Z,1.2
2023-01-20T01:20:08.621Z,1.2
2023-01-20T01:21:09.316Z,1.2
2023-01-20T01:22:09.500Z,1.2
2023-01-20T01:23:10.119Z,1.1
2023-01-20T01:24:09.305Z,1
2023-01-20T01:25:09.894Z,1.1
2023-01-20T01:26:08.920Z,1.2
2023-01-20T01:27:09.451Z,1.2
2023-01-20T01:28:08.981Z,1.2
2023-01-20T01:29:10.088Z,1.3
2023-01-20T01:30:09.144Z,1.2
2023-01-20T01:31:08.678Z,1.2
2023-01-20T01:32:08.649Z,1.2
2023-01-20T01:33:08.660Z,1.1
2023-01-20T01:34:08.307Z,1.1
2023-01-20T01:35:08.842Z,1.1
2023-01-20T01:36:09.168Z,0.9
2023-01-20T01:37:09.868Z,0.9
2023-01-20T01:38:09.548Z,0.8
2023-01-20T01:39:08.739Z,0.8
2023-01-20T01:40:10.033Z,0.9
2023-01-20T01:41:09.118Z,0.9
2023-01-20T01:42:09.098Z,0.8
2023-01-20T01:43:08.894Z,0.9
2023-01-20T01:44:09.452Z,0.9
2023-01-20T01:45:09.226Z,0.7
2023-01-20T01:46:09.357Z,0.7
2023-01-20T01:47:08.727Z,0.7
2023-01-20T01:48:10.049Z,0.6
2023-01-20T01:49:09.526Z,0.6
2023-01-20T01:50:09.666Z,0.4
2023-01-20T01:51:09.972Z,0.5
2023-01-20T01:52:09.245Z,0.4
2023-01-20T01:53:09.273Z,0.3
2023-01-20T01:54:09.146Z,0.4
2023-01-20T01:55:09.994Z,0.3
2023-01-20T01:56:07.555Z,0.3
2023-01-20T01:57:09.163Z,0.3
2023-01-20T01:58:09.454Z,0.3
2023-01-20T01:59:09.769Z,0.3
2023-01-20T02:00:09.269Z,0.3
2023-01-20T02:01:09.668Z,0.3
2023-01-20T02:02:08.916Z,0.3
2023-01-20T02:03:08.824Z,0.2
2023-01-20T02:04:09.753Z,0.3
2023-01-20T02:05:08.975Z,0.2
2023-01-20T02:06:08.813Z,0.2
2023-01-20T02:07:09.521Z,0.3
2023-01-20T02:08:08.825Z,0.4
2023-01-20T02:09:09.216Z,0.4
2023-01-20T02:10:09.152Z,0.4
2023-01-20T02:11:09.056Z,0.4
2023-01-20T02:12:09.079Z,0.4
2023-01-20T02:13:08.672Z,0.4
2023-01-20T02:14:09.224Z,0.4
2023-01-20T02:15:09.211Z,0.5
2023-01-20T02:16:08.708Z,0.6
2023-01-20T02:17:09.598Z,0.6
2023-01-20T02:18:08.725Z,0.7
2023-01-20T02:20:08.927Z,0.6
2023-01-20T02:21:10.180Z,0.6
2023-01-20T02:22:09.254Z,0.5
2023-01-20T02:23:09.805Z,0.6
2023-01-20T02:24:09.189Z,0.5
2023-01-20T02:25:09.207Z,0.5
2023-01-20T02:26:09.786Z,0.5
2023-01-20T02:27:09.180Z,0.5
2023-01-20T02:28:09.133Z,0.6
2023-01-20T02:29:08.924Z,0.5
2023-01-20T02:30:09.395Z,0.6
2023-01-20T02:31:08.656Z,0.5
2023-01-20T02:32:08.677Z,0.4
2023-01-20T02:33:08.767Z,0.2
2023-01-20T02:34:09.097Z,0.1
2023-01-20T02:35:09.294Z,0.1
2023-01-20T02:36:08.999Z,0
2023-01-20T02:37:09.011Z,0
2023-01-20T02:38:09.339Z,-0.1
2023-01-20T02:39:09.281Z,0
2023-01-20T02:40:09.228Z,0
2023-01-20T02:41:07.592Z,0
2023-01-20T02:42:10.387Z,0.1
2023-01-20T02:43:09.415Z,0.1
2023-01-20T02:44:08.623Z,0.2
2023-01-20T02:45:09.374Z,0.2
2023-01-20T02:46:10.001Z,0.2
2023-01-20T02:47:08.619Z,0.2
2023-01-20T02:48:08.616Z,0.3
2023-01-20T02:49:08.918Z,0.4
2023-01-20T02:50:09.356Z,0.5
2023-01-20T02:51:09.377Z,0.6
2023-01-20T02:52:09.215Z,0.5
2023-01-20T02:53:09.845Z,0.5
2023-01-20T02:54:09.033Z,0.5
2023-01-20T02:55:08.776Z,0.5
2023-01-20T02:56:09.230Z,0.5
2023-01-20T02:57:09.218Z,0.5
2023-01-20T02:58:08.882Z,0.5
2023-01-20T02:59:08.683Z,0.6
2023-01-20T03:00:08.684Z,0.6
2023-01-20T03:01:09.561Z,0.7
2023-01-20T03:02:08.704Z,0.7
2023-01-20T03:03:08.015Z,0.7
2023-01-20T03:04:09.521Z,0.7
2023-01-20T03:05:08.758Z,0.8
2023-01-20T03:06:09.454Z,0.8
2023-01-20T03:07:09.829Z,0.8
2023-01-20T03:08:09.179Z,0.7
2023-01-20T03:09:09.513Z,0.6
2023-01-20T03:10:09.231Z,0.6
2023-01-20T03:11:09.405Z,0.6
2023-01-20T03:12:09.233Z,0.7
2023-01-20T03:13:09.834Z,0.6
2023-01-20T03:14:09.328Z,0.5
2023-01-20T03:15:08.743Z,0.5
2023-01-20T03:16:08.691Z,0.6
2023-01-20T03:17:09.981Z,0.7
2023-01-20T03:18:09.420Z,0.7
2023-01-20T03:19:09.099Z,0.6
2023-01-20T03:20:09.638Z,0.6
2023-01-20T03:21:09.868Z,0.6
2023-01-20T03:22:08.604Z,0.6
2023-01-20T03:23:09.349Z,0.6
2023-01-20T03:24:08.755Z,0.6
2023-01-20T03:25:09.072Z,0.5
2023-01-20T03:26:09.036Z,0.5
2023-01-20T03:27:09.300Z,0.5
2023-01-20T03:28:09.020Z,0.5
2023-01-20T03:29:09.525Z,0.5
2023-01-20T03:30:08.936Z,0.5
2023-01-20T03:31:08.746Z,0.5
2023-01-20T03:32:09.105Z,0.5
2023-01-20T03:33:09.332Z,0.5
2023-01-20T03:34:09.197Z,0.5
2023-01-20T03:35:08.615Z,0.5
2023-01-20T03:36:09.170Z,0.5
2023-01-20T03:37:08.649Z,0.5
2023-01-20T03:38:08.674Z,0.5
2023-01-20T03:39:09.507Z,0.5
2023-01-20T03:40:08.639Z,0.5
2023-01-20T03:41:09.209Z,0.5
2023-01-20T03:42:09.136Z,0.5
2023-01-20T03:43:09.545Z,0.5
2023-01-20T03:44:09.362Z,0.6
2023-01-20T03:45:08.804Z,0.6
2023-01-20T03:46:09.109Z,0.6
2023-01-20T03:47:08.685Z,0.5
2023-01-20T03:48:08.551Z,0.5
2023-01-20T03:49:09.535Z,0.5
2023-01-20T03:50:09.617Z,0.4
2023-01-20T03:51:09.681Z,0.5
2023-01-20T03:52:08.765Z,0.4
2023-01-20T03:53:09.038Z,0.4
2023-01-20T03:54:08.896Z,0.5
2023-01-20T03:55:09.338Z,0.5
2023-01-20T03:56:08.607Z,0.5
2023-01-20T03:57:08.984Z,0.5
2023-01-20T03:58:09.849Z,0.5
2023-01-20T03:59:09.924Z,0.5
2023-01-20T04:00:09.512Z,0.4
2023-01-20T04:01:17.884Z,0.4
2023-01-20T04:02:09.221Z,0.4
2023-01-20T04:03:09.664Z,0.5
2023-01-20T04:04:09.996Z,0.5
2023-01-20T04:05:09.069Z,0.5
2023-01-20T04:06:09.182Z,0.5
2023-01-20T04:07:09.324Z,0.4
2023-01-20T04:08:09.808Z,0.5
2023-01-20T04:09:08.620Z,0.5
2023-01-20T04:10:09.249Z,0.4
2023-01-20T04:11:08.952Z,0.4
2023-01-20T04:12:10.204Z,0.4
2023-01-20T04:13:09.904Z,0.5
2023-01-20T04:14:08.725Z,0.5
2023-01-20T04:15:09.183Z,0.5
2023-01-20T04:16:10.201Z,0.5
2023-01-20T04:17:08.637Z,0.5
2023-01-20T04:18:08.743Z,0.6
2023-01-20T04:19:09.409Z,0.5
2023-01-20T04:20:08.605Z,0.4
2023-01-20T04:21:08.787Z,0.4
2023-01-20T04:22:09.342Z,0.4
2023-01-20T04:23:09.414Z,0.5
2023-01-20T04:24:08.899Z,0.6
2023-01-20T04:25:09.215Z,0.5
2023-01-20T04:26:08.643Z,0.6
2023-01-20T04:27:09.584Z,0.7
2023-01-20T04:28:09.559Z,0.6
2023-01-20T04:29:12.954Z,0.6
2023-01-20T04:30:09.087Z,0.6
2023-01-20T04:31:15.472Z,0.7
2023-01-20T04:32:09.157Z,0.7
2023-01-20T04:34:11.666Z,0.6
2023-01-20T04:35:09.821Z,0.7
2023-01-20T04:36:09.404Z,0.7
2023-01-20T04:37:09.242Z,0.7
2023-01-20T04:38:09.100Z,0.7
2023-01-20T04:39:08.598Z,0.7
2023-01-20T04:40:08.643Z,0.6
2023-01-20T04:41:09.018Z,0.5
2023-01-20T04:42:08.665Z,0.6
2023-01-20T04:43:09.240Z,0.5
2023-01-20T04:44:09.137Z,0.3
2023-01-20T04:45:09.225Z,0.3
2023-01-20T04:46:08.711Z,0.3
2023-01-20T04:47:09.437Z,0.2
2023-01-20T04:48:08.637Z,0.2
2023-01-20T04:49:09.551Z,0.2
2023-01-20T04:50:09.140Z,0.2
2023-01-20T04:51:09.405Z,0.2
2023-01-20T04:52:08.919Z,0.2
2023-01-20T04:53:09.181Z,0.1
2023-01-20T04:54:10.008Z,0.1
2023-01-20T04:55:08.282Z,0
2023-01-20T04:56:08.971Z,0
2023-01-20T04:57:08.631Z,0
2023-01-20T04:58:08.889Z,0
2023-01-20T04:59:08.758Z,0.1
2023-01-20T05:00:09.411Z,0.1
2023-01-20T05:01:08.996Z,0.1
2023-01-20T05:02:08.606Z,0.1
2023-01-20T05:03:09.104Z,0.1
2023-01-20T05:04:09.445Z,0.2
2023-01-20T05:05:09.612Z,0.3
2023-01-20T05:06:08.614Z,0.2
2023-01-20T05:07:08.733Z,0.1
2023-01-20T05:08:09.400Z,0
2023-01-20T05:09:09.077Z,0.1
2023-01-20T05:10:09.770Z,0.2
2023-01-20T05:11:08.610Z,0.1
2023-01-20T05:12:09.728Z,0.1
2023-01-20T05:13:08.974Z,0.2
2023-01-20T05:14:09.510Z,0.2
2023-01-20T05:15:09.473Z,0.1
2023-01-20T05:16:09.730Z,0.2
2023-01-20T05:17:08.380Z,0.2
2023-01-20T05:18:09.045Z,0.1
2023-01-20T05:19:09.457Z,0
2023-01-20T05:20:09.776Z,0
2023-01-20T05:21:08.813Z,0
2023-01-20T05:22:08.614Z,0.1
2023-01-20T05:23:09.566Z,0.1
2023-01-20T05:24:09.334Z,0.1
2023-01-20T05:25:08.980Z,0.1
2023-01-20T05:26:08.638Z,0.1
2023-01-20T05:27:08.955Z,0.1
2023-01-20T05:28:08.621Z,0
2023-01-20T05:29:09.285Z,0
2023-01-20T05:30:09.124Z,0.1
2023-01-20T05:31:09.371Z,0.1
2023-01-20T05:32:09.051Z,0.1
2023-01-20T05:33:09.131Z,0.1
2023-01-20T05:34:08.693Z,0.1
2023-01-20T05:35:09.671Z,0.1
2023-01-20T05:36:09.632Z,0.1
2023-01-20T05:37:09.727Z,0.1
2023-01-20T05:38:09.464Z,0.2
2023-01-20T05:39:08.951Z,0.1
2023-01-20T05:40:08.299Z,0.2
2023-01-20T05:41:08.738Z,0.2
2023-01-20T05:42:08.828Z,0.1
2023-01-20T05:43:10.708Z,0
2023-01-20T05:44:09.520Z,0
2023-01-20T05:45:09.482Z,0
2023-01-20T05:46:09.026Z,0.1
2023-01-20T05:47:09.049Z,0
2023-01-20T05:48:09.923Z,0.1
2023-01-20T05:49:09.473Z,0.2
2023-01-20T05:50:08.604Z,0.1
2023-01-20T05:51:09.228Z,0.1
2023-01-20T05:52:09.446Z,0.1
2023-01-20T05:53:09.410Z,0.1
2023-01-20T05:54:08.612Z,0.1
2023-01-20T05:55:08.934Z,0.2
2023-01-20T05:56:09.206Z,0.3
2023-01-20T05:57:09.216Z,0.2
2023-01-20T05:58:09.550Z,0.3
2023-01-20T05:59:09.300Z,0.3
2023-01-20T06:00:08.923Z,0.4
2023-01-20T06:01:08.641Z,0.3
2023-01-20T06:02:08.063Z,0.3
2023-01-20T06:03:08.659Z,0.4
2023-01-20T06:04:08.757Z,0.5
2023-01-20T06:05:09.506Z,0.5
2023-01-20T06:06:08.636Z,0.5
2023-01-20T06:07:08.845Z,0.6
2023-01-20T06:08:10.086Z,0.7
2023-01-20T06:09:08.746Z,0.7
2023-01-20T06:10:09.283Z,0.6
2023-01-20T06:11:09.983Z,0.6
2023-01-20T06:12:10.348Z,0.7
2023-01-20T06:13:08.595Z,0.7
2023-01-20T06:14:09.063Z,0.6
2023-01-20T06:15:08.771Z,0.7
2023-01-20T06:16:09.073Z,0.7
2023-01-20T06:17:08.974Z,0.6
2023-01-20T06:18:08.627Z,0.6
2023-01-20T06:19:08.623Z,0.6
2023-01-20T06:20:08.805Z,0.7
2023-01-20T06:21:09.320Z,0.6
2023-01-20T06:22:08.678Z,0.6
2023-01-20T06:23:10.008Z,0.7
2023-01-20T06:24:07.417Z,0.6
2023-01-20T06:25:09.468Z,0.6
2023-01-20T06:26:08.639Z,0.6
2023-01-20T06:27:09.472Z,0.6
2023-01-20T06:28:09.256Z,0.6
2023-01-20T06:29:09.143Z,0.4
2023-01-20T06:30:09.259Z,0.5
2023-01-20T06:31:08.730Z,0.6
2023-01-20T06:32:08.838Z,0.6
2023-01-20T06:33:09.133Z,0.6
2023-01-20T06:34:08.650Z,0.5
2023-01-20T06:35:11.362Z,0.5
2023-01-20T06:36:09.227Z,0.5
2023-01-20T06:37:09.426Z,0.6
2023-01-20T06:38:08.583Z,0.7
2023-01-20T06:39:09.193Z,0.6
2023-01-20T06:40:09.201Z,0.5
2023-01-20T06:41:08.590Z,0.6
2023-01-20T06:42:11.517Z,0.5
2023-01-20T06:43:09.002Z,0.6
2023-01-20T06:44:08.617Z,0.7
2023-01-20T06:45:08.734Z,0.6
2023-01-20T06:46:07.421Z,0.6
2023-01-20T06:47:08.766Z,0.7
2023-01-20T06:48:10.251Z,0.6
2023-01-20T06:49:09.030Z,0.7
2023-01-20T06:50:09.395Z,0.7
2023-01-20T06:51:10.064Z,0.7
2023-01-20T06:52:08.684Z,0.6
2023-01-20T06:53:09.307Z,0.6
2023-01-20T06:54:09.892Z,0.5
2023-01-20T06:55:09.431Z,0.6
2023-01-20T06:56:08.586Z,0.6
2023-01-20T06:57:10.148Z,0.6
2023-01-20T06:58:09.210Z,0.6
2023-01-20T06:59:08.609Z,0.7
2023-01-20T07:00:09.535Z,0.7
2023-01-20T07:01:09.480Z,0.7
2023-01-20T07:02:10.075Z,0.7
2023-01-20T07:03:09.201Z,0.7
2023-01-20T07:04:09.373Z,0.8
2023-01-20T07:05:09.449Z,0.8
2023-01-20T07:06:08.681Z,0.8
2023-01-20T07:07:10.220Z,0.8
2023-01-20T07:08:09.371Z,0.8
2023-01-20T07:09:09.960Z,0.7
2023-01-20T07:10:08.992Z,0.6
2023-01-20T07:11:08.600Z,0.7
2023-01-20T07:12:09.510Z,0.8
2023-01-20T07:13:09.824Z,0.7
2023-01-20T07:14:08.839Z,0.6
2023-01-20T07:15:08.729Z,0.6
2023-01-20T07:16:10.723Z,0.6
2023-01-20T07:17:09.668Z,0.6
2023-01-20T07:18:09.502Z,0.6
2023-01-20T07:19:09.024Z,0.8
2023-01-20T07:20:08.705Z,0.7
2023-01-20T07:21:09.003Z,0.6
2023-01-20T07:22:08.618Z,0.8
2023-01-20T07:23:08.937Z,0.7
2023-01-20T07:24:08.604Z,0.6
2023-01-20T07:25:09.335Z,0.6
2023-01-20T07:26:09.307Z,0.7
2023-01-20T07:27:09.024Z,0.7
2023-01-20T07:28:09.074Z,0.6
2023-01-20T07:29:09.129Z,0.6
2023-01-20T07:30:08.585Z,0.6
2023-01-20T07:31:09.242Z,0.7
2023-01-20T07:32:09.155Z,0.6
2023-01-20T07:33:10.028Z,0.7
2023-01-20T07:34:09.226Z,0.7
2023-01-20T07:35:08.778Z,0.8
2023-01-20T07:36:09.666Z,0.9
2023-01-20T07:37:08.710Z,0.8
2023-01-20T07:38:09.289Z,0.8
2023-01-20T07:39:09.375Z,0.8
2023-01-20T07:40:08.980Z,0.7
2023-01-20T07:41:09.938Z,0.8
2023-01-20T07:42:10.000Z,0.8
2023-01-20T07:43:09.531Z,0.7
2023-01-20T07:44:08.788Z,0.7
2023-01-20T07:45:09.064Z,0.8
2023-01-20T07:46:10.042Z,0.8
2023-01-20T07:47:08.727Z,0.7
2023-01-20T07:48:08.932Z,0.6
2023-01-20T07:49:12.125Z,0.6
2023-01-20T07:50:09.753Z,0.6
2023-01-20T07:51:09.698Z,0.6
2023-01-20T07:52:10.077Z,0.6
2023-01-20T07:53:08.844Z,0.6
2023-01-20T07:54:08.869Z,0.6
2023-01-20T07:55:09.073Z,0.5
2023-01-20T07:56:08.924Z,0.4
2023-01-20T07:57:08.967Z,0.5
2023-01-20T07:58:09.866Z,0.6
2023-01-20T07:59:09.123Z,0.7
2023-01-20T08:00:09.307Z,0.7
2023-01-20T08:01:08.744Z,0.7
2023-01-20T08:02:09.721Z,0.7
2023-01-20T08:03:10.001Z,0.6
2023-01-20T08:04:08.589Z,0.6
2023-01-20T08:05:09.237Z,0.7
2023-01-20T08:06:08.619Z,0.8
2023-01-20T08:07:09.253Z,0.7
2023-01-20T08:08:08.943Z,0.7
2023-01-20T08:09:09.799Z,0.8
2023-01-20T08:10:08.687Z,0.7
2023-01-20T08:11:08.602Z,0.8
2023-01-20T08:12:08.784Z,0.8
2023-01-20T08:13:09.045Z,0.7
2023-01-20T08:14:09.411Z,0.7
2023-01-20T08:15:08.944Z,0.8
2023-01-20T08:16:07.549Z,0.6
2023-01-20T08:17:09.147Z,0.7
2023-01-20T08:18:08.949Z,0.8
2023-01-20T08:19:09.386Z,0.8
2023-01-20T08:20:10.070Z,0.9
2023-01-20T08:21:08.823Z,0.9
2023-01-20T08:22:09.171Z,0.9
2023-01-20T08:23:09.942Z,0.9
2023-01-20T08:24:09.287Z,1
2023-01-20T08:25:08.605Z,1.1
2023-01-20T08:26:08.804Z,1.1
2023-01-20T08:27:08.801Z,1.1
2023-01-20T08:28:09.290Z,1.2
2023-01-20T08:29:09.332Z,1.2
2023-01-20T08:30:09.259Z,1.2
2023-01-20T08:31:08.688Z,1.2
2023-01-20T08:32:09.110Z,1.3
2023-01-20T08:33:08.710Z,1.3
2023-01-20T08:34:09.811Z,1.3
2023-01-20T08:35:08.627Z,1.4
2023-01-20T08:36:10.246Z,1.3
2023-01-20T08:37:08.990Z,1.5
2023-01-20T08:38:08.678Z,1.5
2023-01-20T08:39:09.420Z,1.4
2023-01-20T08:40:08.957Z,1.4
2023-01-20T08:41:08.801Z,1.4
2023-01-20T08:42:09.596Z,1.4
2023-01-20T08:43:08.926Z,1.5
2023-01-20T08:44:08.924Z,1.4
2023-01-20T08:45:08.596Z,1.4
2023-01-20T08:46:09.197Z,1.5
2023-01-20T08:47:08.588Z,1.5
2023-01-20T08:48:09.564Z,1.5
2023-01-20T08:49:08.586Z,1.5
2023-01-20T08:50:09.000Z,1.5
2023-01-20T08:51:09.401Z,1.5
2023-01-20T08:52:11.299Z,1.4
2023-01-20T08:53:09.210Z,1.4
2023-01-20T08:54:09.167Z,1.3
2023-01-20T08:55:08.845Z,1.4
2023-01-20T08:56:09.722Z,1.4
2023-01-20T08:57:10.449Z,1.5
2023-01-20T08:58:09.687Z,1.5
2023-01-20T08:59:07.434Z,1.5
2023-01-20T09:00:09.145Z,1.5
2023-01-20T09:01:08.647Z,1.4
2023-01-20T09:02:08.647Z,1.6
2023-01-20T09:03:08.670Z,1.5
2023-01-20T09:04:09.100Z,1.4
2023-01-20T09:05:08.664Z,1.4
2023-01-20T09:06:09.280Z,1.5
2023-01-20T09:07:08.836Z,1.7
2023-01-20T09:08:08.782Z,1.7
2023-01-20T09:09:08.709Z,1.7
2023-01-20T09:10:08.806Z,1.8
2023-01-20T09:11:09.689Z,1.9
2023-01-20T09:12:10.016Z,2.1
2023-01-20T09:13:09.679Z,2.1
2023-01-20T09:14:10.085Z,2.1
2023-01-20T09:15:09.295Z,2.1
2023-01-20T09:16:10.136Z,2.2
2023-01-20T09:17:09.400Z,2.2
2023-01-20T09:18:09.110Z,2.1
2023-01-20T09:19:09.181Z,2.1
2023-01-20T09:20:09.371Z,2
2023-01-20T09:21:08.782Z,1.9
2023-01-20T09:22:09.912Z,2.1
2023-01-20T09:23:08.264Z,2.3
2023-01-20T09:24:09.433Z,2.2
2023-01-20T09:25:08.625Z,2.1
2023-01-20T09:26:08.691Z,2.3
2023-01-20T09:27:08.749Z,2.2
2023-01-20T09:28:09.717Z,2.3
2023-01-20T09:29:08.774Z,2.3
2023-01-20T09:30:09.160Z,2.2
2023-01-20T09:31:08.723Z,2.2
2023-01-20T09:32:09.156Z,2.4
2023-01-20T09:33:09.330Z,2.4
2023-01-20T09:34:08.721Z,2.5
2023-01-20T09:35:09.104Z,2.5
2023-01-20T09:36:09.117Z,2.8
2023-01-20T09:37:09.192Z,2.7
2023-01-20T09:38:09.688Z,2.8
2023-01-20T09:39:08.950Z,2.9
2023-01-20T09:40:09.366Z,2.9
2023-01-20T09:41:09.172Z,2.9
2023-01-20T09:42:08.962Z,3
2023-01-20T09:43:08.913Z,3
2023-01-20T09:44:09.233Z,3
2023-01-20T09:45:09.574Z,3.1
2023-01-20T09:46:08.879Z,3.1
2023-01-20T09:47:09.187Z,3.2
2023-01-20T09:48:08.615Z,3.2
2023-01-20T09:49:09.075Z,3.3
2023-01-20T09:50:09.105Z,3.4
2023-01-20T09:51:08.646Z,3.4
2023-01-20T09:52:09.440Z,3.4
2023-01-20T09:53:08.605Z,3.3
2023-01-20T09:54:08.622Z,3.2
2023-01-20T09:55:08.790Z,3.2
2023-01-20T09:56:09.397Z,3.1
2023-01-20T09:57:10.024Z,3.1
2023-01-20T09:58:09.194Z,3.1
2023-01-20T09:59:08.634Z,3.2
2023-01-20T10:00:10.409Z,3.3
2023-01-20T10:01:08.981Z,3.3
2023-01-20T10:02:08.643Z,3.4
2023-01-20T10:03:09.661Z,3.6
2023-01-20T10:04:09.943Z,3.4
2023-01-20T10:05:08.643Z,3.4
2023-01-20T10:06:07.649Z,3.3
2023-01-20T10:07:09.300Z,3.3
2023-01-20T10:09:10.080Z,3.3
2023-01-20T10:10:09.267Z,3.3
2023-01-20T10:11:09.441Z,3.3
2023-01-20T10:12:09.971Z,3.2
2023-01-20T10:13:09.107Z,3.5
2023-01-20T10:14:08.640Z,3.5
2023-01-20T10:15:10.055Z,3.4
2023-01-20T10:16:08.816Z,3.5
2023-01-20T10:17:09.560Z,3.5
2023-01-20T10:18:08.664Z,3.4
2023-01-20T10:19:08.668Z,3.3
2023-01-20T10:20:08.839Z,3.1
2023-01-20T10:21:09.121Z,3.1
2023-01-20T10:22:08.658Z,3.3
2023-01-20T10:23:09.530Z,3
2023-01-20T10:24:09.516Z,2.9
2023-01-20T10:25:08.657Z,2.6
2023-01-20T10:26:09.001Z,2.7
2023-01-20T10:27:09.343Z,2.8
2023-01-20T10:28:09.303Z,2.7
2023-01-20T10:29:10.309Z,2.9
2023-01-20T10:30:07.426Z,2.9
2023-01-20T10:31:09.413Z,2.7
2023-01-20T10:32:09.677Z,2.9
2023-01-20T10:33:08.839Z,2.8
2023-01-20T10:34:09.222Z,2.8
2023-01-20T10:35:09.140Z,2.9
2023-01-20T10:36:09.077Z,2.7
2023-01-20T10:37:10.029Z,2.8
2023-01-20T10:38:08.645Z,2.9
2023-01-20T10:39:09.361Z,3
2023-01-20T10:40:09.404Z,3
2023-01-20T10:41:09.339Z,2.9
2023-01-20T10:42:10.334Z,2.9
2023-01-20T10:43:09.681Z,2.8
2023-01-20T10:44:09.048Z,2.7
2023-01-20T10:45:08.653Z,2.6
2023-01-20T10:46:10.387Z,2.7
2023-01-20T10:47:09.042Z,2.9
2023-01-20T10:48:09.268Z,2.8
2023-01-20T10:49:09.870Z,2.8
2023-01-20T10:50:08.899Z,2.7
2023-01-20T10:51:09.609Z,2.7
2023-01-20T10:52:09.801Z,2.8
2023-01-20T10:53:08.697Z,2.8
2023-01-20T10:54:09.057Z,2.8
2023-01-20T10:55:09.116Z,2.7
2023-01-20T10:56:09.143Z,2.7
2023-01-20T10:57:09.133Z,2.6
2023-01-20T10:58:09.369Z,2.5
2023-01-20T10:59:09.111Z,2.7
2023-01-20T11:00:09.097Z,2.7
2023-01-20T11:01:08.957Z,2.8
2023-01-20T11:02:12.431Z,2.6
2023-01-20T11:03:09.239Z,2.8
2023-01-20T11:04:09.179Z,2.9
2023-01-20T11:05:08.921Z,3
2023-01-20T11:06:09.311Z,3.2
2023-01-20T11:07:08.700Z,3.1
2023-01-20T11:08:09.134Z,3.2
2023-01-20T11:09:09.847Z,3.1
2023-01-20T11:10:08.689Z,3.1
2023-01-20T11:11:09.106Z,3
2023-01-20T11:12:09.079Z,3.1
2023-01-20T11:13:10.237Z,3.1
2023-01-20T11:14:08.883Z,3.2
2023-01-20T11:16:08.653Z,3.3
2023-01-20T11:17:08.762Z,3.3
2023-01-20T11:18:09.147Z,3.2
2023-01-20T11:19:08.851Z,3.2
2023-01-20T11:20:09.166Z,3.2
2023-01-20T11:21:08.743Z,3.4
2023-01-20T11:22:09.161Z,3.4
2023-01-20T11:23:09.024Z,3.3
2023-01-20T11:24:09.043Z,3.3
2023-01-20T11:25:08.997Z,3.3
2023-01-20T11:26:08.743Z,3.4
2023-01-20T11:27:08.642Z,3.4
2023-01-20T11:28:09.049Z,3.3
2023-01-20T11:29:09.674Z,3.1
2023-01-20T11:30:09.481Z,3.1
2023-01-20T11:31:09.845Z,3.1
2023-01-20T11:32:09.675Z,3.2
2023-01-20T11:33:09.109Z,3.3
2023-01-20T11:34:09.220Z,3.2
2023-01-20T11:35:09.460Z,3.2
2023-01-20T11:36:08.675Z,3.1
2023-01-20T11:37:09.050Z,3.2
2023-01-20T11:38:08.109Z,3.1
2023-01-20T11:39:08.659Z,3
2023-01-20T11:40:08.956Z,3
2023-01-20T11:41:09.796Z,3
2023-01-20T11:42:08.899Z,2.8
2023-01-20T11:43:09.068Z,2.9
2023-01-20T11:44:09.353Z,3
2023-01-20T11:45:21.262Z,3.1
2023-01-20T11:46:09.547Z,3
2023-01-20T11:47:08.778Z,3
2023-01-20T11:48:09.919Z,3
2023-01-20T11:49:09.437Z,2.9
2023-01-20T11:50:09.099Z,3
2023-01-20T11:51:09.236Z,3
2023-01-20T11:52:10.014Z,2.9
2023-01-20T11:53:09.263Z,2.9
2023-01-20T11:54:09.913Z,2.9
2023-01-20T11:55:08.660Z,2.9
2023-01-20T11:56:09.501Z,3.2
2023-01-20T11:57:08.803Z,3.1
2023-01-20T11:58:09.198Z,3.1
2023-01-20T11:59:09.050Z,3
2023-01-20T12:00:07.399Z,3.2
2023-01-20T12:01:09.174Z,3.1
2023-01-20T12:02:09.760Z,3.1
2023-01-20T12:03:08.859Z,3.2
2023-01-20T12:04:09.308Z,3.3
2023-01-20T12:05:09.410Z,3.3
2023-01-20T12:06:09.211Z,3.4
2023-01-20T12:07:08.663Z,3.4
2023-01-20T12:08:10.522Z,3.4
2023-01-20T12:09:08.685Z,3.3
2023-01-20T12:10:09.263Z,3.2
2023-01-20T12:11:09.169Z,3.2
2023-01-20T12:12:09.013Z,3.1
2023-01-20T12:13:09.297Z,3.2
2023-01-20T12:14:08.702Z,3.3
2023-01-20T12:15:09.670Z,3.3
2023-01-20T12:16:09.375Z,3.4
2023-01-20T12:17:08.747Z,3.5
2023-01-20T12:18:09.772Z,3.4
2023-01-20T12:19:08.757Z,3.4
2023-01-20T12:20:08.942Z,3.3
2023-01-20T12:21:09.522Z,3.3
2023-01-20T12:22:08.155Z,3.2
2023-01-20T12:23:08.713Z,3.4
2023-01-20T12:24:09.784Z,3.5
2023-01-20T12:25:09.544Z,3.5
2023-01-20T12:26:09.733Z,3.4
2023-01-20T12:27:08.948Z,3.3
2023-01-20T12:28:10.098Z,3.2
2023-01-20T12:29:09.240Z,3.1
2023-01-20T12:30:09.127Z,3
2023-01-20T12:31:09.612Z,3
2023-01-20T12:32:09.698Z,3.1
2023-01-20T12:33:09.204Z,3.1
2023-01-20T12:34:09.370Z,3.1
2023-01-20T12:35:09.184Z,2.8
2023-01-20T12:36:08.859Z,3
2023-01-20T12:37:08.842Z,2.9
2023-01-20T12:38:09.542Z,2.7
2023-01-20T12:39:09.115Z,2.7
2023-01-20T12:40:09.854Z,2.6
2023-01-20T12:41:09.266Z,2.9
2023-01-20T12:42:09.579Z,3
2023-01-20T12:43:09.082Z,2.9
2023-01-20T12:44:09.743Z,3
2023-01-20T12:45:09.239Z,2.9
2023-01-20T12:46:09.283Z,3
2023-01-20T12:47:09.927Z,2.9
2023-01-20T12:48:09.056Z,2.8
2023-01-20T12:49:09.212Z,2.8
2023-01-20T12:50:09.359Z,2.7
2023-01-20T12:51:08.885Z,2.6
2023-01-20T12:52:09.323Z,2.8
2023-01-20T12:53:09.361Z,2.9
2023-01-20T12:54:08.874Z,3
2023-01-20T12:55:09.402Z,2.9
2023-01-20T12:56:09.344Z,2.9
2023-01-20T12:57:09.089Z,2.9
2023-01-20T12:58:09.134Z,2.9
2023-01-20T12:59:09.512Z,2.8
2023-01-20T13:00:09.750Z,2.9
2023-01-20T13:01:09.511Z,2.9
2023-01-20T13:02:08.830Z,2.9
2023-01-20T13:03:08.957Z,2.9
2023-01-20T13:04:10.169Z,2.9
2023-01-20T13:05:09.397Z,2.9
2023-01-20T13:06:08.727Z,2.8
2023-01-20T13:07:09.198Z,2.8
2023-01-20T13:08:09.203Z,2.8
2023-01-20T13:09:09.416Z,2.6
2023-01-20T13:10:08.838Z,2.7
2023-01-20T13:11:09.257Z,2.8
2023-01-20T13:12:09.570Z,3
2023-01-20T13:13:09.212Z,3
2023-01-20T13:14:08.749Z,2.9
2023-01-20T13:15:08.735Z,2.9
2023-01-20T13:16:09.140Z,2.9
2023-01-20T13:17:08.793Z,2.8
2023-01-20T13:18:08.962Z,2.8
2023-01-20T13:19:09.475Z,2.7
2023-01-20T13:20:09.887Z,2.8
2023-01-20T13:21:09.665Z,2.7
2023-01-20T13:22:09.666Z,2.5
2023-01-20T13:23:09.553Z,2.5
2023-01-20T13:24:09.598Z,2.6
2023-01-20T13:25:09.046Z,2.6
2023-01-20T13:26:09.746Z,2.6
2023-01-20T13:27:09.454Z,2.7
2023-01-20T13:28:08.917Z,2.4
2023-01-20T13:29:08.773Z,2.5
2023-01-20T13:30:09.355Z,2.6
2023-01-20T13:31:08.758Z,2.7
2023-01-20T13:32:09.051Z,2.7
2023-01-20T13:33:09.322Z,2.7
2023-01-20T13:34:09.123Z,2.7
2023-01-20T13:35:10.153Z,2.5
2023-01-20T13:36:09.134Z,2.4
2023-01-20T13:37:08.865Z,2.4
2023-01-20T13:38:09.161Z,2.5
2023-01-20T13:39:08.921Z,2.6
2023-01-20T13:40:09.066Z,2.8
2023-01-20T13:41:09.529Z,2.8
2023-01-20T13:42:08.779Z,2.9
2023-01-20T13:43:09.181Z,2.7
2023-01-20T13:44:09.286Z,2.7
2023-01-20T13:45:08.757Z,2.7
2023-01-20T13:46:09.656Z,2.7
2023-01-20T13:47:09.310Z,2.6
2023-01-20T13:48:09.353Z,2.5
2023-01-20T13:49:09.257Z,2.7
2023-01-20T13:50:08.892Z,2.8
2023-01-20T13:51:08.849Z,2.9
2023-01-20T13:52:09.186Z,2.9
2023-01-20T13:53:09.563Z,2.9
2023-01-20T13:54:09.465Z,3
2023-01-20T13:55:09.158Z,2.9